Time;durP1;ratioP1;P1;durP2;ratioP2;P2;SDS_P1;SDS_P2;PMS_P1;PMS_P2;Temp;Humidity;BMP_temperature;BMP_pressure;BME280_temperature;BME280_humidity;BME280_pressure;Samples;Min_cycle;Max_cycle;Signal;HPM_P1;HPM_P2
2022/06/04 00:00:09;;;;;;;1.30;0.88;;;;;;;;;;5020640;28;20132;-67
2022/06/04 00:02:38;;;;;;;2.20;0.95;;;;;;;;;;5020630;28;20061;-68
2022/06/04 00:05:06;;;;;;;4.78;1.10;;;;;;;;;;5016574;28;20063;-68
2022/06/04 00:07:34;;;;;;;1.52;1.02;;;;;;;;;;5026914;28;20041;-68
2022/06/04 00:15:33;;;;;;;2.22;1.20;;;;;;;;;;5038586;28;20045;-68
2022/06/04 00:18:00;;;;;;;2.60;1.10;;;;;;;;;;5013163;28;20058;-68
2022/06/04 00:20:27;;;;;;;4.05;1.20;;;;;;;;;;5014720;28;20136;-68
2022/06/04 00:22:59;;;;;;;2.75;1.10;;;;;;;;;;5028007;28;20053;-68
2022/06/04 00:25:25;;;;;;;1.48;0.90;;;;;;;;;;5022070;28;20049;-69
2022/06/04 00:27:52;;;;;;;2.88;1.20;;;;;;;;;;5028080;28;20099;-68
2022/06/04 00:30:19;;;;;;;2.17;1.00;;;;;;;;;;5021590;28;20053;-68
2022/06/04 00:32:46;;;;;;;3.35;1.27;;;;;;;;;;5022373;28;20113;-68
2022/06/04 00:35:12;;;;;;;6.13;1.17;;;;;;;;;;5007825;28;20049;-68
2022/06/04 00:37:39;;;;;;;2.40;1.10;;;;;;;;;;5018244;28;20046;-70
2022/06/04 00:40:09;;;;;;;2.70;0.90;;;;;;;;;;5026990;28;20055;-68
2022/06/04 00:42:36;;;;;;;1.85;1.10;;;;;;;;;;5021345;28;20064;-68
2022/06/04 00:45:21;;;;;;;3.03;1.20;;;;;;;;;;5027029;28;20049;-68
2022/06/04 00:47:48;;;;;;;3.55;1.20;;;;;;;;;;5008337;28;20065;-68
2022/06/04 00:50:15;;;;;;;2.92;0.90;;;;;;;;;;5026921;28;20057;-69
2022/06/04 00:52:42;;;;;;;7.47;1.10;;;;;;;;;;5024476;28;20064;-69
2022/06/04 00:55:11;;;;;;;2.55;0.90;;;;;;;;;;5024452;28;20077;-67
2022/06/04 00:57:53;;;;;;;3.10;1.10;;;;;;;;;;5027106;28;20061;-69
2022/06/04 01:00:22;;;;;;;2.20;1.10;;;;;;;;;;5020503;28;20050;-68
2022/06/04 01:03:11;;;;;;;4.50;1.13;;;;;;;;;;5026812;28;20057;-68
2022/06/04 01:05:57;;;;;;;1.92;1.02;;;;;;;;;;5020594;28;20080;-68
2022/06/04 01:08:37;;;;;;;4.68;1.10;;;;;;;;;;5026488;28;20123;-68
2022/06/04 01:11:11;;;;;;;2.90;1.38;;;;;;;;;;5020763;28;20053;-67
2022/06/04 01:13:48;;;;;;;5.25;1.02;;;;;;;;;;5026325;28;20112;-67
2022/06/04 01:16:17;;;;;;;1.45;0.80;;;;;;;;;;5019093;28;20053;-68
2022/06/04 01:18:44;;;;;;;;;;;;;;;;;;5027648;28;20056;-68
2022/06/04 01:21:16;;;;;;;1.73;1.00;;;;;;;;;;5040112;28;19921;-69
2022/06/04 01:23:58;;;;;;;2.83;1.40;;;;;;;;;;5031249;28;20080;-68
2022/06/04 01:26:46;;;;;;;1.90;1.02;;;;;;;;;;4992887;28;20045;-68
2022/06/04 01:29:15;;;;;;;2.47;1.20;;;;;;;;;;5014302;28;20054;-67
2022/06/04 01:31:44;;;;;;;1.60;1.10;;;;;;;;;;5005625;28;20057;-67
2022/06/04 01:34:12;;;;;;;6.63;0.77;;;;;;;;;;5010737;28;20068;-68
2022/06/04 01:36:42;;;;;;;4.40;1.40;;;;;;;;;;5009174;28;20068;-67
2022/06/04 01:39:13;;;;;;;2.67;1.00;;;;;;;;;;5031086;28;20064;-67
2022/06/04 01:41:40;;;;;;;2.17;1.00;;;;;;;;;;5023963;28;20108;-68
2022/06/04 01:44:10;;;;;;;4.78;1.20;;;;;;;;;;5031032;28;20056;-68
2022/06/04 01:46:39;;;;;;;2.15;1.10;;;;;;;;;;5027985;28;20053;-67
2022/06/04 01:49:11;;;;;;;1.42;0.90;;;;;;;;;;5029158;28;20041;-67
2022/06/04 01:51:38;;;;;;;1.83;0.98;;;;;;;;;;5030519;28;20041;-67
2022/06/04 01:54:09;;;;;;;2.95;1.50;;;;;;;;;;5025261;28;20056;-68
2022/06/04 01:56:37;;;;;;;1.90;1.13;;;;;;;;;;5029912;28;20057;-68
2022/06/04 01:59:08;;;;;;;2.47;1.20;;;;;;;;;;5025565;28;20132;-69
2022/06/04 02:01:37;;;;;;;3.65;1.10;;;;;;;;;;5028388;28;20060;-67
2022/06/04 02:04:06;;;;;;;2.10;1.10;;;;;;;;;;5024268;28;20076;-68
2022/06/04 02:06:34;;;;;;;2.70;0.98;;;;;;;;;;5029213;28;20148;-69
2022/06/04 02:09:02;;;;;;;6.28;1.38;;;;;;;;;;5025247;28;20053;-68
2022/06/04 02:11:30;;;;;;;4.80;1.20;;;;;;;;;;5030718;28;20045;-70
2022/06/04 02:13:59;;;;;;;2.30;1.20;;;;;;;;;;5025954;28;20052;-70
2022/06/04 02:16:30;;;;;;;2.90;1.10;;;;;;;;;;5027975;28;20111;-69
2022/06/04 02:18:58;;;;;;;4.00;1.40;;;;;;;;;;5013300;28;20053;-68
2022/06/04 02:21:25;;;;;;;;;;;;;;;;;;5046974;28;20084;-68
2022/06/04 02:23:52;;;;;;;2.30;1.33;;;;;;;;;;5037254;28;19925;-68
2022/06/04 02:26:19;;;;;;;4.15;1.35;;;;;;;;;;5028143;28;20045;-69
2022/06/04 02:28:46;;;;;;;5.38;1.23;;;;;;;;;;5024466;28;20048;-67
2022/06/04 02:31:16;;;;;;;2.15;1.13;;;;;;;;;;5028056;28;20117;-68
2022/06/04 02:33:49;;;;;;;2.95;1.20;;;;;;;;;;5040439;28;20065;-69
2022/06/04 02:36:21;;;;;;;2.45;1.50;;;;;;;;;;5029644;28;20417;-67
2022/06/04 02:38:52;;;;;;;2.78;1.20;;;;;;;;;;5024444;28;20053;-67
2022/06/04 02:41:20;;;;;;;2.85;1.33;;;;;;;;;;5029275;28;20050;-68
2022/06/04 02:43:50;;;;;;;1.73;1.15;;;;;;;;;;5029369;28;20045;-67
2022/06/04 02:46:19;;;;;;;2.50;1.20;;;;;;;;;;5008746;28;20049;-67
2022/06/04 02:48:48;;;;;;;4.43;1.30;;;;;;;;;;5009423;28;20058;-68
2022/06/04 02:51:17;;;;;;;4.30;1.50;;;;;;;;;;5004108;28;20062;-68
2022/06/04 02:53:45;;;;;;;1.52;1.10;;;;;;;;;;5015346;28;20080;-68
2022/06/04 02:56:14;;;;;;;1.63;0.95;;;;;;;;;;5023295;28;20048;-67
2022/06/04 02:58:43;;;;;;;2.13;1.20;;;;;;;;;;5029248;28;20135;-68
2022/06/04 03:01:09;;;;;;;;;;;;;;;;;;5023995;28;20104;-70
2022/06/04 03:03:36;;;;;;;3.53;1.40;;;;;;;;;;5023751;28;19924;-68
2022/06/04 03:06:05;;;;;;;2.38;1.20;;;;;;;;;;5019301;28;20053;-68
2022/06/04 03:08:33;;;;;;;1.88;1.17;;;;;;;;;;5029076;28;20050;-68
2022/06/04 03:11:01;;;;;;;4.70;1.52;;;;;;;;;;5023332;28;20053;-70
2022/06/04 03:13:29;;;;;;;;;;;;;;;;;;5029790;28;20049;-67
2022/06/04 03:15:56;;;;;;;2.87;1.10;;;;;;;;;;5023801;28;20031;-68
2022/06/04 03:18:22;;;;;;;2.50;1.20;;;;;;;;;;5029140;28;20065;-67
2022/06/04 03:20:49;;;;;;;3.83;1.38;;;;;;;;;;5028871;28;20119;-67
2022/06/04 03:23:16;;;;;;;2.08;1.20;;;;;;;;;;5022039;28;20136;-69
2022/06/04 03:25:43;;;;;;;3.92;1.48;;;;;;;;;;5028190;28;20123;-67
2022/06/04 03:28:11;;;;;;;5.88;1.52;;;;;;;;;;5022528;28;20053;-68
2022/06/04 03:30:38;;;;;;;2.75;1.13;;;;;;;;;;5028604;28;20072;-68
2022/06/04 03:33:06;;;;;;;2.13;1.27;;;;;;;;;;5022659;28;20144;-68
2022/06/04 03:35:33;;;;;;;3.40;1.20;;;;;;;;;;5028092;28;20088;-68
2022/06/04 03:38:00;;;;;;;3.90;1.30;;;;;;;;;;5026054;28;20050;-68
2022/06/04 03:40:27;;;;;;;3.42;1.45;;;;;;;;;;5021879;28;20057;-69
2022/06/04 03:42:54;;;;;;;3.88;1.30;;;;;;;;;;5008904;28;20053;-68
2022/06/04 03:45:24;;;;;;;2.75;1.40;;;;;;;;;;5018305;28;20055;-69
2022/06/04 03:47:51;;;;;;;2.78;1.30;;;;;;;;;;5028527;28;20053;-67
2022/06/04 03:50:18;;;;;;;3.47;1.20;;;;;;;;;;5021240;28;20042;-68
2022/06/04 03:52:46;;;;;;;4.57;1.83;;;;;;;;;;5028581;28;20095;-69
2022/06/04 03:55:14;;;;;;;3.60;1.30;;;;;;;;;;5023436;28;20057;-69
2022/06/04 03:57:45;;;;;;;5.43;1.63;;;;;;;;;;5027580;28;20061;-68
2022/06/04 04:00:16;;;;;;;3.55;1.48;;;;;;;;;;5027859;28;20092;-68
2022/06/04 04:02:46;;;;;;;2.22;1.20;;;;;;;;;;5020115;28;20136;-68
2022/06/04 04:05:14;;;;;;;4.72;1.33;;;;;;;;;;5027507;28;20056;-68
2022/06/04 04:07:41;;;;;;;3.72;1.40;;;;;;;;;;5021388;28;20075;-68
2022/06/04 04:10:08;;;;;;;5.88;1.42;;;;;;;;;;5027908;28;20057;-68
2022/06/04 04:12:35;;;;;;;4.63;1.75;;;;;;;;;;5021348;28;20053;-67
2022/06/04 04:15:03;;;;;;;5.30;1.55;;;;;;;;;;5027597;28;20046;-69
2022/06/04 04:17:30;;;;;;;3.60;1.48;;;;;;;;;;5021421;28;20068;-67
2022/06/04 04:19:58;;;;;;;7.55;1.60;;;;;;;;;;5026369;28;20056;-70
2022/06/04 04:22:25;;;;;;;14.68;1.85;;;;;;;;;;5027185;28;20077;-68
2022/06/04 04:24:55;;;;;;;4.30;1.20;;;;;;;;;;5021826;28;20144;-69
2022/06/04 04:27:22;;;;;;;3.90;1.67;;;;;;;;;;5027368;28;20127;-69
2022/06/04 04:29:49;;;;;;;3.15;1.35;;;;;;;;;;5021243;28;20053;-68
2022/06/04 04:32:16;;;;;;;4.57;1.35;;;;;;;;;;5028066;28;20073;-67
2022/06/04 04:34:43;;;;;;;3.60;1.40;;;;;;;;;;5022330;28;20049;-68
2022/06/04 04:37:11;;;;;;;2.65;1.50;;;;;;;;;;5027850;28;20064;-70
2022/06/04 04:39:38;;;;;;;6.40;1.75;;;;;;;;;;5021868;28;20065;-68
2022/06/04 04:42:05;;;;;;;4.03;1.80;;;;;;;;;;5026787;28;20137;-68
2022/06/04 04:44:32;;;;;;;3.50;1.58;;;;;;;;;;5021138;28;20057;-68
2022/06/04 04:46:59;;;;;;;5.10;1.88;;;;;;;;;;5027305;28;20053;-68
2022/06/04 04:49:26;;;;;;;5.82;1.88;;;;;;;;;;5016751;28;20065;-68
2022/06/04 04:51:52;;;;;;;4.60;1.90;;;;;;;;;;5006854;28;20058;-68
2022/06/04 04:54:21;;;;;;;5.20;1.90;;;;;;;;;;5002650;28;20208;-68
2022/06/04 04:56:47;;;;;;;8.25;1.83;;;;;;;;;;5014418;28;20045;-68
2022/06/04 04:59:14;;;;;;;5.07;1.80;;;;;;;;;;5023144;28;20154;-68
2022/06/04 05:01:40;;;;;;;5.80;1.50;;;;;;;;;;5025634;28;20060;-68
2022/06/04 05:04:08;;;;;;;2.88;1.50;;;;;;;;;;5026810;28;20056;-67
2022/06/04 05:06:34;;;;;;;7.43;2.30;;;;;;;;;;5004886;28;20052;-68
2022/06/04 05:09:01;;;;;;;7.68;1.83;;;;;;;;;;5007437;28;20108;-68
2022/06/04 05:11:31;;;;;;;6.15;1.50;;;;;;;;;;5002330;28;20061;-68
2022/06/04 05:13:59;;;;;;;7.20;2.17;;;;;;;;;;5006874;28;20104;-68
2022/06/04 05:16:27;;;;;;;5.95;1.85;;;;;;;;;;5013284;28;20054;-68
2022/06/04 05:18:54;;;;;;;3.88;1.38;;;;;;;;;;5006816;28;20058;-67
2022/06/04 05:21:22;;;;;;;5.38;2.13;;;;;;;;;;5001677;28;20049;-68
2022/06/04 05:23:55;;;;;;;6.53;1.73;;;;;;;;;;5020237;28;20076;-69
2022/06/04 05:26:23;;;;;;;3.30;1.80;;;;;;;;;;5013656;28;20058;-68
2022/06/04 05:28:51;;;;;;;3.95;2.03;;;;;;;;;;5008680;28;20056;-67
2022/06/04 05:31:18;;;;;;;12.05;2.40;;;;;;;;;;5009194;28;20130;-70
2022/06/04 05:33:58;;;;;;;3.30;1.60;;;;;;;;;;5021239;28;20051;-70
2022/06/04 05:36:25;;;;;;;3.83;1.58;;;;;;;;;;5021896;28;20049;-68
2022/06/04 05:38:52;;;;;;;3.45;1.50;;;;;;;;;;5026950;28;20053;-68
2022/06/04 05:41:19;;;;;;;8.35;2.08;;;;;;;;;;5019601;28;20054;-69
2022/06/04 05:43:45;;;;;;;4.20;1.65;;;;;;;;;;5026099;28;20068;-68
2022/06/04 05:46:15;;;;;;;4.05;1.77;;;;;;;;;;5020442;28;20073;-67
2022/06/04 05:48:43;;;;;;;9.02;1.70;;;;;;;;;;5026454;28;20061;-68
2022/06/04 05:51:10;;;;;;;5.43;2.08;;;;;;;;;;5026708;28;20045;-68
2022/06/04 05:53:37;;;;;;;6.82;2.08;;;;;;;;;;5003313;28;20054;-68
2022/06/04 05:56:10;;;;;;;3.58;2.00;;;;;;;;;;5006283;28;20062;-68
2022/06/04 05:58:37;;;;;;;5.22;2.17;;;;;;;;;;5001580;28;20050;-68
2022/06/04 06:01:03;;;;;;;3.22;1.77;;;;;;;;;;5006619;28;20046;-67
2022/06/04 06:03:32;;;;;;;5.72;2.13;;;;;;;;;;5008486;28;20156;-68
2022/06/04 06:05:59;;;;;;;5.97;2.00;;;;;;;;;;5009422;28;20104;-68
2022/06/04 06:08:26;;;;;;;4.22;2.10;;;;;;;;;;5018706;28;20076;-68
2022/06/04 06:10:52;;;;;;;4.50;1.67;;;;;;;;;;5030342;28;20049;-67
2022/06/04 06:13:20;;;;;;;3.95;1.77;;;;;;;;;;5021035;28;20057;-68
2022/06/04 06:15:46;;;;;;;10.73;2.63;;;;;;;;;;5010469;28;20053;-68
2022/06/04 06:18:13;;;;;;;7.28;2.47;;;;;;;;;;5017455;28;20045;-68
2022/06/04 06:20:44;;;;;;;7.38;2.20;;;;;;;;;;5023826;28;20053;-67
2022/06/04 06:23:11;;;;;;;9.40;2.25;;;;;;;;;;5017514;28;20054;-67
2022/06/04 06:25:38;;;;;;;5.28;2.35;;;;;;;;;;5026140;28;20046;-68
2022/06/04 06:28:06;;;;;;;4.50;1.80;;;;;;;;;;5020179;28;20045;-67
2022/06/04 06:30:32;;;;;;;5.18;1.70;;;;;;;;;;5026157;28;20045;-67
2022/06/04 06:32:59;;;;;;;5.30;1.63;;;;;;;;;;5019517;28;20165;-67
2022/06/04 06:35:26;;;;;;;4.18;2.00;;;;;;;;;;5025940;28;20049;-67
2022/06/04 06:37:54;;;;;;;8.02;2.25;;;;;;;;;;5024599;28;20056;-67
2022/06/04 06:40:21;;;;;;;9.68;2.78;;;;;;;;;;5019520;28;20041;-67
2022/06/04 06:42:48;;;;;;;4.47;1.88;;;;;;;;;;5026022;28;20053;-68
2022/06/04 06:45:15;;;;;;;5.72;1.95;;;;;;;;;;5016596;28;20068;-66
2022/06/04 06:47:43;;;;;;;4.57;1.88;;;;;;;;;;5024294;28;20135;-67
2022/06/04 06:50:10;;;;;;;5.30;2.15;;;;;;;;;;5019064;28;20057;-67
2022/06/04 06:52:36;;;;;;;6.53;2.30;;;;;;;;;;5025417;28;20148;-67
2022/06/04 06:55:05;;;;;;;9.10;2.38;;;;;;;;;;5019141;28;20054;-67
2022/06/04 06:57:31;;;;;;;;;;;;;;;;;;5024261;28;20061;-67
2022/06/04 06:59:58;;;;;;;6.35;2.20;;;;;;;;;;5020014;28;20003;-67
2022/06/04 07:02:25;;;;;;;5.35;1.80;;;;;;;;;;5024355;28;20084;-67
2022/06/04 07:04:51;;;;;;;3.55;1.65;;;;;;;;;;5020386;28;20110;-67
2022/06/04 07:07:20;;;;;;;5.13;2.08;;;;;;;;;;5027185;28;20065;-67
2022/06/04 07:09:51;;;;;;;5.70;2.03;;;;;;;;;;5019559;28;20107;-68
2022/06/04 07:12:21;;;;;;;5.22;2.10;;;;;;;;;;5023530;28;20049;-69
2022/06/04 07:14:49;;;;;;;6.38;2.00;;;;;;;;;;5017752;28;20141;-67
2022/06/04 07:17:16;;;;;;;7.53;2.55;;;;;;;;;;5021990;28;20050;-67
2022/06/04 07:19:43;;;;;;;6.38;1.67;;;;;;;;;;5024137;28;20064;-67
2022/06/04 07:22:10;;;;;;;4.60;1.58;;;;;;;;;;5013885;28;20080;-68
2022/06/04 07:24:37;;;;;;;7.32;2.22;;;;;;;;;;5024544;28;20076;-67
2022/06/04 07:27:05;;;;;;;4.47;2.30;;;;;;;;;;5014219;28;20111;-67
2022/06/04 07:29:34;;;;;;;6.07;1.80;;;;;;;;;;5026581;28;20064;-67
2022/06/04 07:32:01;;;;;;;4.85;2.35;;;;;;;;;;5021632;28;20045;-67
2022/06/04 07:34:30;;;;;;;6.72;2.28;;;;;;;;;;5027761;28;20084;-67
2022/06/04 07:36:57;;;;;;;5.28;2.05;;;;;;;;;;5025252;28;20077;-67
2022/06/04 07:39:24;;;;;;;3.50;1.77;;;;;;;;;;5024471;28;20052;-67
2022/06/04 07:41:52;;;;;;;4.15;1.85;;;;;;;;;;5028096;28;20053;-68
2022/06/04 07:44:19;;;;;;;3.85;2.10;;;;;;;;;;5022420;28;20053;-68
2022/06/04 07:46:48;;;;;;;4.68;1.77;;;;;;;;;;5027466;28;20049;-67
2022/06/04 07:49:15;;;;;;;5.03;2.20;;;;;;;;;;5021949;28;20120;-67
2022/06/04 07:51:43;;;;;;;7.20;2.85;;;;;;;;;;5027354;28;20041;-67
2022/06/04 07:54:10;;;;;;;5.00;1.75;;;;;;;;;;5039143;28;20049;-67
2022/06/04 07:56:37;;;;;;;5.75;1.98;;;;;;;;;;5027374;28;20045;-68
2022/06/04 07:59:04;;;;;;;5.82;2.08;;;;;;;;;;5031404;28;20049;-68
2022/06/04 08:01:32;;;;;;;7.32;2.13;;;;;;;;;;5023896;28;20049;-69
2022/06/04 08:04:03;;;;;;;4.57;1.83;;;;;;;;;;5024791;28;20072;-68
2022/06/04 08:06:31;;;;;;;7.03;2.13;;;;;;;;;;5017933;28;20064;-69
2022/06/04 08:08:59;;;;;;;6.05;1.90;;;;;;;;;;5007870;28;20073;-68
2022/06/04 08:11:32;;;;;;;4.33;2.10;;;;;;;;;;5012524;28;20156;-68
2022/06/04 08:14:03;;;;;;;8.05;2.72;;;;;;;;;;5042253;28;20298;-69
2022/06/04 08:16:30;;;;;;;4.65;1.98;;;;;;;;;;5014182;28;20123;-69
2022/06/04 08:18:58;;;;;;;4.20;2.00;;;;;;;;;;5023417;28;20053;-68
2022/06/04 08:21:26;;;;;;;3.10;1.80;;;;;;;;;;5022398;28;20057;-69
2022/06/04 08:23:53;;;;;;;9.73;2.28;;;;;;;;;;5016572;28;20056;-68
2022/06/04 08:26:20;;;;;;;4.00;1.70;;;;;;;;;;5043532;28;20145;-68
2022/06/04 08:28:46;;;;;;;5.63;2.13;;;;;;;;;;5011969;28;20061;-69
2022/06/04 08:31:14;;;;;;;6.28;2.40;;;;;;;;;;5023727;28;20045;-69
2022/06/04 08:33:42;;;;;;;3.65;1.90;;;;;;;;;;5024845;28;20056;-69
2022/06/04 08:36:10;;;;;;;5.28;1.90;;;;;;;;;;5025492;28;20109;-68
2022/06/04 08:38:38;;;;;;;8.50;2.05;;;;;;;;;;5034916;28;20053;-68
2022/06/04 08:41:06;;;;;;;5.78;2.33;;;;;;;;;;5019271;28;20045;-70
2022/06/04 08:43:43;;;;;;;5.63;2.27;;;;;;;;;;5023316;28;20057;-69
2022/06/04 08:46:13;;;;;;;8.87;2.23;;;;;;;;;;5013766;28;20053;-69
2022/06/04 08:48:40;;;;;;;6.15;1.88;;;;;;;;;;5022790;28;20053;-69
2022/06/04 08:51:12;;;;;;;5.95;2.08;;;;;;;;;;5012895;28;20068;-69
2022/06/04 08:53:41;;;;;;;5.20;2.20;;;;;;;;;;5020792;28;20056;-69
2022/06/04 08:58:58;;;;;;;3.97;2.08;;;;;;;;;;5023255;28;20057;-69
2022/06/04 09:01:27;;;;;;;5.00;1.95;;;;;;;;;;5011873;28;20057;-69
2022/06/04 09:03:58;;;;;;;4.35;1.80;;;;;;;;;;5017592;28;20049;-67
2022/06/04 09:06:32;;;;;;;8.45;2.28;;;;;;;;;;5014593;28;20059;-66
2022/06/04 09:09:04;;;;;;;3.03;1.60;;;;;;;;;;5018647;28;20053;-67
2022/06/04 09:11:38;;;;;;;5.43;2.03;;;;;;;;;;5021537;28;20069;-67
2022/06/04 09:14:33;;;;;;;6.75;2.42;;;;;;;;;;5020470;28;20138;-67
2022/06/04 09:17:01;;;;;;;5.20;1.83;;;;;;;;;;4991733;28;20055;-67
2022/06/04 09:19:30;;;;;;;3.70;1.95;;;;;;;;;;5021397;28;20095;-67
2022/06/04 09:21:58;;;;;;;7.15;2.58;;;;;;;;;;5026100;28;20049;-68
2022/06/04 09:24:26;;;;;;;7.10;2.33;;;;;;;;;;5019220;28;20159;-67
2022/06/04 09:26:53;;;;;;;;;;;;;;;;;;5044473;28;20046;-67
2022/06/04 09:29:27;;;;;;;5.40;2.13;;;;;;;;;;5020819;28;19963;-68
2022/06/04 09:31:59;;;;;;;10.20;2.25;;;;;;;;;;5026464;28;20041;-67
2022/06/04 09:34:33;;;;;;;6.32;2.53;;;;;;;;;;5024019;28;20050;-68
2022/06/04 09:37:00;;;;;;;6.65;2.00;;;;;;;;;;5041173;28;20053;-69
2022/06/04 09:39:29;;;;;;;6.65;2.45;;;;;;;;;;5027149;28;20057;-67
2022/06/04 09:41:57;;;;;;;5.75;2.30;;;;;;;;;;5024426;28;20063;-68
2022/06/04 09:44:24;;;;;;;7.65;2.10;;;;;;;;;;5030148;28;20061;-68
2022/06/04 09:46:55;;;;;;;6.30;2.42;;;;;;;;;;5023930;28;20050;-68
2022/06/04 09:49:30;;;;;;;6.68;2.47;;;;;;;;;;5029824;28;20068;-67
2022/06/04 09:51:57;;;;;;;4.55;2.03;;;;;;;;;;5023461;28;20077;-68
2022/06/04 09:54:25;;;;;;;5.30;2.05;;;;;;;;;;5030458;28;20060;-70
2022/06/04 09:56:55;;;;;;;6.20;2.33;;;;;;;;;;5013848;28;20073;-67
2022/06/04 09:59:24;;;;;;;4.20;1.90;;;;;;;;;;5029776;28;20071;-69
2022/06/04 10:01:55;;;;;;;5.18;2.40;;;;;;;;;;5029764;28;20060;-67
2022/06/04 10:04:23;;;;;;;6.03;2.25;;;;;;;;;;5014439;28;20045;-69
2022/06/04 10:06:50;;;;;;;8.20;2.90;;;;;;;;;;5038202;28;20059;-68
2022/06/04 10:12:05;;;;;;;4.57;1.80;;;;;;;;;;5029563;28;20072;-69
2022/06/04 10:14:33;;;;;;;3.85;2.22;;;;;;;;;;5025479;28;20053;-68
2022/06/04 10:17:00;;;;;;;4.75;2.40;;;;;;;;;;5030146;28;20045;-69
2022/06/04 10:19:30;;;;;;;3.03;1.67;;;;;;;;;;5023555;28;20146;-74
2022/06/04 10:22:06;;;;;;;6.25;2.28;;;;;;;;;;5030169;28;20053;-68
2022/06/04 10:24:36;;;;;;;6.47;2.28;;;;;;;;;;5027142;28;20184;-70
2022/06/04 10:27:10;;;;;;;5.30;2.25;;;;;;;;;;5027092;28;20057;-70
2022/06/04 10:29:44;;;;;;;5.18;2.40;;;;;;;;;;5029499;28;20058;-71
2022/06/04 10:32:16;;;;;;;3.47;2.03;;;;;;;;;;5021045;28;20119;-69
2022/06/04 10:34:48;;;;;;;7.90;2.88;;;;;;;;;;5029966;28;20057;-68
2022/06/04 10:37:24;;;;;;;4.32;2.25;;;;;;;;;;5023544;28;20046;-68
2022/06/04 10:40:02;;;;;;;4.28;1.92;;;;;;;;;;5029572;28;20057;-69
2022/06/04 10:42:35;;;;;;;8.38;2.28;;;;;;;;;;5022779;28;20073;-69
2022/06/04 10:45:05;;;;;;;8.45;2.00;;;;;;;;;;5029212;28;20060;-69
2022/06/04 10:47:34;;;;;;;4.45;2.05;;;;;;;;;;5023525;28;20068;-67
2022/06/04 10:50:16;;;;;;;4.95;2.40;;;;;;;;;;5029762;28;20060;-68
2022/06/04 10:52:45;;;;;;;4.88;2.40;;;;;;;;;;5024445;28;20111;-69
2022/06/04 10:55:21;;;;;;;4.38;1.80;;;;;;;;;;5027267;28;20057;-69
2022/06/04 10:57:52;;;;;;;9.30;2.13;;;;;;;;;;5028571;28;20053;-68
2022/06/04 11:00:21;;;;;;;4.72;2.20;;;;;;;;;;5022408;28;20045;-69
2022/06/04 11:02:49;;;;;;;6.50;2.30;;;;;;;;;;5027797;28;20076;-70
2022/06/04 11:05:20;;;;;;;5.32;2.08;;;;;;;;;;5014597;28;20046;-68
2022/06/04 11:07:53;;;;;;;4.30;2.13;;;;;;;;;;5028103;28;20061;-69
2022/06/04 11:10:21;;;;;;;4.63;1.65;;;;;;;;;;5021804;28;20050;-67
2022/06/04 11:12:50;;;;;;;5.60;2.03;;;;;;;;;;5028250;28;20041;-67
2022/06/04 11:15:22;;;;;;;5.95;2.33;;;;;;;;;;5023306;28;20110;-69
2022/06/04 11:17:51;;;;;;;5.85;2.10;;;;;;;;;;5028763;28;20092;-70
2022/06/04 11:20:20;;;;;;;7.45;2.42;;;;;;;;;;4995286;28;20089;-68
2022/06/04 11:22:50;;;;;;;7.00;2.00;;;;;;;;;;5024912;28;20080;-68
2022/06/04 11:25:24;;;;;;;4.93;2.10;;;;;;;;;;5027543;28;20059;-68
2022/06/04 11:27:53;;;;;;;7.28;2.38;;;;;;;;;;5022774;28;20049;-68
2022/06/04 11:30:26;;;;;;;2.40;1.55;;;;;;;;;;5028421;28;20050;-69
2022/06/04 11:32:58;;;;;;;6.00;2.20;;;;;;;;;;5021876;28;20080;-69
2022/06/04 11:35:31;;;;;;;3.65;1.83;;;;;;;;;;5029171;28;20060;-68
2022/06/04 11:38:03;;;;;;;4.60;2.15;;;;;;;;;;5022725;28;20058;-68
2022/06/04 11:40:32;;;;;;;5.63;1.98;;;;;;;;;;5028146;28;20099;-69
2022/06/04 11:43:00;;;;;;;4.30;2.15;;;;;;;;;;5022213;28;20152;-69
2022/06/04 11:45:38;;;;;;;3.90;2.03;;;;;;;;;;5027965;28;20058;-69
2022/06/04 11:48:12;;;;;;;7.43;1.95;;;;;;;;;;5028398;28;20307;-68
2022/06/04 11:50:41;;;;;;;6.53;2.00;;;;;;;;;;5021384;28;20046;-69
2022/06/04 11:53:15;;;;;;;5.18;2.20;;;;;;;;;;5008194;28;20069;-69
2022/06/04 11:55:46;;;;;;;4.38;2.03;;;;;;;;;;5023300;28;20136;-72
2022/06/04 11:58:19;;;;;;;7.78;2.22;;;;;;;;;;5019198;28;20125;-71
2022/06/04 12:00:48;;;;;;;5.38;2.10;;;;;;;;;;5022047;28;20053;-72
2022/06/04 12:03:23;;;;;;;4.20;2.08;;;;;;;;;;5027417;28;20065;-72
2022/06/04 12:05:54;;;;;;;9.27;2.20;;;;;;;;;;5019636;28;20073;-72
2022/06/04 12:08:22;;;;;;;3.88;2.10;;;;;;;;;;5008817;28;20054;-72
2022/06/04 12:11:02;;;;;;;3.72;1.70;;;;;;;;;;5028771;28;20104;-73
2022/06/04 12:13:32;;;;;;;6.78;2.13;;;;;;;;;;5027962;28;20053;-72
2022/06/04 12:16:04;;;;;;;4.20;2.05;;;;;;;;;;5024423;28;20045;-69
2022/06/04 12:18:33;;;;;;;6.18;2.00;;;;;;;;;;5024265;28;20049;-74
2022/06/04 12:26:31;;;;;;;4.88;1.77;;;;;;;;;;5044573;28;20057;-71
2022/06/04 12:28:58;;;;;;;4.05;1.88;;;;;;;;;;5021551;28;20131;-78
2022/06/04 12:31:29;;;;;;;6.22;2.50;;;;;;;;;;5027518;28;20048;-77
2022/06/04 12:33:56;;;;;;;5.00;2.05;;;;;;;;;;5021008;28;20475;-72
2022/06/04 12:36:27;;;;;;;5.00;2.50;;;;;;;;;;5027651;28;20136;-76
2022/06/04 12:38:59;;;;;;;10.40;3.20;;;;;;;;;;5020796;28;20155;-76
2022/06/04 12:41:36;;;;;;;6.63;2.20;;;;;;;;;;5026602;28;20117;-74
2022/06/04 12:44:04;;;;;;;3.90;1.70;;;;;;;;;;5023588;28;20136;-72
2022/06/04 12:46:33;;;;;;;6.65;2.20;;;;;;;;;;5023628;28;20060;-72
2022/06/04 12:49:06;;;;;;;6.75;1.90;;;;;;;;;;5027611;28;20053;-72
2022/06/04 12:51:46;;;;;;;5.55;2.03;;;;;;;;;;5019838;28;20069;-73
2022/06/04 12:54:28;;;;;;;4.95;1.70;;;;;;;;;;5026558;28;20049;-72
2022/06/04 12:56:55;;;;;;;2.72;1.40;;;;;;;;;;5003704;28;20045;-73
2022/06/04 12:59:27;;;;;;;4.18;1.75;;;;;;;;;;5026326;28;20053;-73
2022/06/04 13:01:56;;;;;;;3.92;1.35;;;;;;;;;;5020907;28;20080;-73
2022/06/04 13:04:25;;;;;;;8.15;2.45;;;;;;;;;;5014813;28;20057;-72
2022/06/04 13:06:57;;;;;;;6.28;2.20;;;;;;;;;;5019787;28;20141;-72
2022/06/04 13:09:32;;;;;;;4.93;2.42;;;;;;;;;;5032012;28;20135;-73
2022/06/04 13:12:07;;;;;;;4.35;2.10;;;;;;;;;;5020751;28;20095;-72
2022/06/04 13:14:39;;;;;;;6.50;2.47;;;;;;;;;;5026102;28;20053;-73
2022/06/04 13:17:20;;;;;;;6.88;2.45;;;;;;;;;;5024588;28;20087;-72
2022/06/04 13:20:01;;;;;;;7.38;1.77;;;;;;;;;;5023199;28;20062;-71
2022/06/04 13:22:29;;;;;;;5.25;2.25;;;;;;;;;;5024698;28;20053;-71
2022/06/04 13:24:56;;;;;;;;;;;;;;;;;;5032405;28;20053;-71
2022/06/04 13:27:29;;;;;;;4.50;2.05;;;;;;;;;;5038821;28;19987;-71
2022/06/04 13:29:57;;;;;;;3.92;1.98;;;;;;;;;;5020471;28;20128;-72
2022/06/04 13:32:25;;;;;;;3.57;1.97;;;;;;;;;;5026790;28;20053;-70
2022/06/04 13:34:52;;;;;;;;;;;;;;;;;;5020843;28;20064;-71
2022/06/04 13:37:21;;;;;;;3.78;2.03;;;;;;;;;;5025684;28;20243;-72
2022/06/04 13:39:49;;;;;;;5.18;2.30;;;;;;;;;;5022850;28;20053;-71
2022/06/04 13:42:21;;;;;;;7.43;2.03;;;;;;;;;;5039331;28;20107;-71
2022/06/04 13:44:55;;;;;;;4.30;2.08;;;;;;;;;;5025477;28;20045;-72
2022/06/04 13:47:23;;;;;;;2.97;1.80;;;;;;;;;;5019041;28;20057;-71
2022/06/04 13:49:52;;;;;;;7.97;2.03;;;;;;;;;;5025758;28;20062;-72
2022/06/04 13:52:21;;;;;;;5.80;2.60;;;;;;;;;;5019690;28;20050;-72
2022/06/04 13:54:53;;;;;;;5.00;2.40;;;;;;;;;;5029147;28;20056;-72
2022/06/04 13:57:25;;;;;;;5.80;2.03;;;;;;;;;;5025256;28;20053;-70
2022/06/04 13:59:52;;;;;;;4.40;1.75;;;;;;;;;;5025775;28;20061;-71
2022/06/04 14:02:25;;;;;;;3.58;1.98;;;;;;;;;;5021919;28;20049;-71
2022/06/04 14:07:42;;;;;;;5.03;1.75;;;;;;;;;;5005613;28;20058;-65
2022/06/04 14:10:12;;;;;;;7.38;1.90;;;;;;;;;;5019965;28;20057;-64
2022/06/04 14:12:43;;;;;;;3.88;2.10;;;;;;;;;;5025660;28;20141;-64
2022/06/04 14:15:18;;;;;;;3.40;2.00;;;;;;;;;;5019840;28;20056;-64
2022/06/04 14:17:59;;;;;;;6.53;2.40;;;;;;;;;;5026334;28;20050;-64
2022/06/04 14:20:31;;;;;;;5.95;2.10;;;;;;;;;;5017267;28;20063;-64
2022/06/04 14:23:07;;;;;;;6.55;2.10;;;;;;;;;;5026078;28;20045;-64
2022/06/04 14:25:39;;;;;;;4.57;2.40;;;;;;;;;;5019433;28;20045;-63
2022/06/04 14:28:12;;;;;;;4.13;1.98;;;;;;;;;;5028459;28;20117;-64
2022/06/04 14:30:46;;;;;;;7.45;2.10;;;;;;;;;;5023621;28;20095;-63
2022/06/04 14:33:20;;;;;;;5.50;2.35;;;;;;;;;;5010323;28;20056;-63
2022/06/04 14:35:57;;;;;;;5.95;2.92;;;;;;;;;;5010426;28;20054;-64
2022/06/04 14:38:25;;;;;;;6.22;2.53;;;;;;;;;;5027071;28;20053;-63
2022/06/04 14:41:00;;;;;;;2.35;1.60;;;;;;;;;;5024953;28;20049;-64
2022/06/04 14:43:50;;;;;;;5.40;1.77;;;;;;;;;;5018861;28;20148;-66
2022/06/04 14:46:27;;;;;;;6.15;2.03;;;;;;;;;;4974537;28;20141;-63
2022/06/04 14:49:10;;;;;;;4.15;2.33;;;;;;;;;;5016336;28;20049;-64
2022/06/04 14:51:59;;;;;;;4.30;1.80;;;;;;;;;;5024837;28;20053;-64
2022/06/04 14:54:31;;;;;;;3.75;1.80;;;;;;;;;;5027698;28;20049;-64
2022/06/04 14:57:13;;;;;;;5.05;1.90;;;;;;;;;;5040832;28;20077;-64
2022/06/04 14:59:49;;;;;;;6.45;2.30;;;;;;;;;;5003036;28;20066;-63
2022/06/04 15:02:24;;;;;;;5.03;2.05;;;;;;;;;;5025385;28;20136;-64
2022/06/04 15:05:03;;;;;;;5.13;2.35;;;;;;;;;;5014298;28;20077;-64
2022/06/04 15:07:37;;;;;;;5.10;1.55;;;;;;;;;;5021410;28;20129;-64
2022/06/04 15:10:12;;;;;;;4.75;2.10;;;;;;;;;;5012560;28;20060;-64
2022/06/04 15:12:44;;;;;;;5.68;2.17;;;;;;;;;;5025338;28;20049;-64
2022/06/04 15:15:15;;;;;;;7.63;1.80;;;;;;;;;;5014819;28;20081;-68
2022/06/04 15:17:55;;;;;;;6.22;2.05;;;;;;;;;;5025212;28;20061;-70
2022/06/04 15:20:23;;;;;;;4.63;2.00;;;;;;;;;;5041626;28;20053;-68